Terminal Aerodrome Forecast
Issued by NWS

Home | Current Version | Previous Version | Text Only | Print | Product List | Glossary Off
Versions: 1 2 3 4 5 6 7 8 9 10 11 12 13 14 15

374
FTUS43 KMPX 040946 AAA
TAFRNH
TAF AMD
KRNH 040946Z 0410/0506 15008KT 2SM -SN BR SCT008 BKN014
      TEMPO 0410/0414 1SM -SN BR BKN008
     FM041400 16008KT 1 1/2SM -SN BR OVC007
     FM041900 21008KT 5SM -SN OVC008
     FM042200 24008KT P6SM OVC015=

USA.gov is the U.S. government's official web portal to all federal, state and local government web resources and services.